Time;durP1;ratioP1;P1;durP2;ratioP2;P2;SDS_P1;SDS_P2;PMS_P1;PMS_P2;Temp;Humidity;BMP_temperature;BMP_pressure;BME280_temperature;BME280_humidity;BME280_pressure;Samples;Min_cycle;Max_cycle;Signal;HPM_P1;HPM_P2
2021/12/22 04:02:38;;;;;;;7.67;6.97;;;-0.80;75.90;;;;;;5191489;22;20484;-70
2021/12/22 04:05:06;;;;;;;9.07;7.20;;;-0.70;75.40;;;;;;5016872;28;20862;-70
2021/12/22 04:07:33;;;;;;;7.77;7.00;;;-0.60;75.00;;;;;;5017187;28;20448;-70
2021/12/22 04:10:08;;;;;;;10.00;7.50;;;-0.60;75.20;;;;;;5017129;28;20479;-70
2021/12/22 04:12:35;;;;;;;10.50;7.33;;;-0.50;74.70;;;;;;5017040;28;20510;-70
2021/12/22 04:15:01;;;;;;;6.80;6.20;;;-0.40;74.00;;;;;;5017969;28;20858;-69
2021/12/22 04:17:28;;;;;;;6.77;6.07;;;-0.40;73.80;;;;;;5016969;28;20452;-70
2021/12/22 04:19:56;;;;;;;7.83;7.10;;;-0.30;73.90;;;;;;5016897;28;20452;-70
2021/12/22 04:22:23;;;;;;;8.40;6.20;;;-0.30;73.70;;;;;;5016737;28;20526;-69
2021/12/22 04:24:49;;;;;;;7.07;6.37;;;-0.30;73.00;;;;;;5016380;28;20475;-70
2021/12/22 04:27:16;;;;;;;7.00;6.30;;;-0.30;72.60;;;;;;5016426;28;20947;-70
2021/12/22 04:29:43;;;;;;;6.83;6.13;;;-0.40;71.90;;;;;;5016406;28;20935;-69
2021/12/22 04:32:09;;;;;;;6.83;5.53;;;-0.40;71.40;;;;;;5016301;28;20456;-70
2021/12/22 04:34:36;;;;;;;6.63;5.90;;;-0.50;71.30;;;;;;5016548;28;20448;-69
2021/12/22 04:37:04;;;;;;;7.30;6.53;;;-0.60;71.10;;;;;;5016607;28;20455;-70
2021/12/22 04:39:33;;;;;;;7.20;6.50;;;-0.60;71.00;;;;;;5016557;28;20505;-69
2021/12/22 04:41:59;;;;;;;7.93;7.13;;;-0.60;71.00;;;;;;5016392;28;20515;-69
2021/12/22 04:44:26;;;;;;;8.17;6.30;;;-0.60;71.30;;;;;;5016004;28;20483;-69
2021/12/22 04:46:53;;;;;;;7.43;6.67;;;-0.70;71.60;;;;;;5015405;28;20955;-69
2021/12/22 04:49:19;;;;;;;8.00;7.17;;;-0.70;71.90;;;;;;5016261;28;20448;-70
2021/12/22 04:51:51;;;;;;;7.23;5.80;;;-0.70;72.30;;;;;;5016172;28;20853;-69
2021/12/22 04:54:31;;;;;;;7.83;7.03;;;-0.70;73.20;;;;;;5016336;28;20450;-70
2021/12/22 04:56:58;;;;;;;7.80;7.00;;;-0.80;73.70;;;;;;5015898;28;20438;-70
2021/12/22 04:59:25;;;;;;;7.97;7.10;;;-0.90;74.20;;;;;;5015793;28;20967;-70
2021/12/22 05:01:52;;;;;;;7.73;6.93;;;-1.00;74.70;;;;;;5015508;28;20995;-70
2021/12/22 05:04:18;;;;;;;8.40;7.60;;;-1.00;74.80;;;;;;5016047;28;20575;-69
2021/12/22 05:06:45;;;;;;;11.27;7.47;;;-1.10;75.30;;;;;;5015717;28;20448;-70
2021/12/22 05:09:12;;;;;;;8.70;6.80;;;-1.10;75.50;;;;;;5015734;28;20534;-70
2021/12/22 05:11:40;;;;;;;7.70;6.90;;;-1.00;75.10;;;;;;5015867;28;20471;-71
2021/12/22 05:14:08;;;;;;;7.73;6.93;;;-1.00;74.90;;;;;;5016012;28;20506;-69
2021/12/22 05:16:44;;;;;;;9.87;7.43;;;-1.10;75.20;;;;;;5015866;28;20503;-71
2021/12/22 05:19:14;;;;;;;8.83;7.20;;;-1.20;75.40;;;;;;5015560;28;20930;-70
2021/12/22 05:21:41;;;;;;;7.77;6.70;;;-1.10;75.50;;;;;;5016213;28;20503;-70
2021/12/22 05:24:08;;;;;;;8.30;7.50;;;-1.10;75.60;;;;;;5016392;28;20476;-69
2021/12/22 05:26:35;;;;;;;10.40;7.77;;;-1.00;75.50;;;;;;5016115;28;20440;-70
2021/12/22 05:29:03;;;;;;;7.97;7.00;;;-1.00;75.40;;;;;;5015324;28;20494;-70
2021/12/22 05:31:30;;;;;;;8.20;7.27;;;-0.90;75.20;;;;;;5015502;28;20464;-69
2021/12/22 05:33:57;;;;;;;7.07;6.27;;;-0.90;74.90;;;;;;5015525;28;20440;-69
2021/12/22 05:36:24;;;;;;;8.80;7.20;;;-0.80;74.90;;;;;;5015545;28;20526;-69
2021/12/22 05:38:51;;;;;;;8.50;7.50;;;-0.90;74.90;;;;;;5015197;28;20832;-70
2021/12/22 05:41:17;;;;;;;8.30;7.50;;;-1.00;75.30;;;;;;5015673;28;20472;-69
2021/12/22 05:43:44;;;;;;;8.67;7.77;;;-1.10;75.50;;;;;;5014843;28;20888;-70
2021/12/22 05:46:12;;;;;;;8.70;7.80;;;-1.00;75.50;;;;;;5014925;28;20995;-70
2021/12/22 05:48:39;;;;;;;8.20;7.40;;;-0.90;75.30;;;;;;5015244;28;20475;-70
2021/12/22 05:51:06;;;;;;;8.33;7.27;;;-0.90;75.10;;;;;;5015077;28;20472;-70
2021/12/22 05:53:33;;;;;;;9.00;6.60;;;-0.90;75.10;;;;;;5015158;28;20459;-70
2021/12/22 05:56:00;;;;;;;7.60;6.80;;;-0.80;74.80;;;;;;5014765;28;20452;-71
2021/12/22 05:58:28;;;;;;;6.50;5.90;;;-0.70;74.30;;;;;;5014541;28;20502;-69
2021/12/22 06:00:55;;;;;;;7.23;6.53;;;-0.60;73.90;;;;;;5014189;28;20551;-69
2021/12/22 06:03:23;;;;;;;7.67;6.50;;;-0.60;73.70;;;;;;5014890;28;20436;-69
2021/12/22 06:05:50;;;;;;;7.30;6.60;;;-0.60;73.60;;;;;;5014735;28;20494;-70
2021/12/22 06:08:16;;;;;;;7.63;6.77;;;-0.60;73.10;;;;;;5014864;28;20444;-69
2021/12/22 06:10:43;;;;;;;7.83;7.10;;;-0.50;72.80;;;;;;5014363;28;20900;-71
2021/12/22 06:13:11;;;;;;;9.30;6.43;;;-0.60;73.30;;;;;;5014615;28;20448;-70
2021/12/22 06:15:39;;;;;;;8.27;7.43;;;-0.60;73.30;;;;;;5014590;28;20501;-70
2021/12/22 06:18:06;;;;;;;10.10;7.77;;;-0.60;73.00;;;;;;5014654;28;20475;-70
2021/12/22 06:20:35;;;;;;;7.60;6.87;;;-0.60;73.10;;;;;;5014542;28;20444;-70
2021/12/22 06:23:02;;;;;;;9.43;7.00;;;-0.70;73.50;;;;;;5014503;28;20449;-70
2021/12/22 06:25:29;;;;;;;8.33;7.53;;;-0.90;74.10;;;;;;5014168;28;21013;-69
2021/12/22 06:27:56;;;;;;;9.43;7.97;;;-1.00;74.30;;;;;;5014509;28;20444;-70
2021/12/22 06:30:23;;;;;;;8.97;7.00;;;-1.10;74.60;;;;;;5014074;28;20940;-71
2021/12/22 06:32:50;;;;;;;8.40;7.30;;;-1.20;75.20;;;;;;5014305;28;20502;-70
2021/12/22 06:35:17;;;;;;;8.00;6.20;;;-1.30;75.90;;;;;;5014390;28;20441;-69
2021/12/22 06:37:46;;;;;;;7.50;6.57;;;-1.20;75.90;;;;;;5014229;28;20483;-70
2021/12/22 06:40:14;;;;;;;8.33;7.37;;;-1.00;75.40;;;;;;5014295;28;20494;-70
2021/12/22 06:42:41;;;;;;;8.00;6.77;;;-0.90;75.20;;;;;;5014110;28;20475;-70
2021/12/22 06:45:10;;;;;;;7.73;6.40;;;-0.90;74.70;;;;;;5014127;28;20480;-69
2021/12/22 06:47:37;;;;;;;8.20;6.83;;;-0.90;74.70;;;;;;5014110;28;20452;-70
2021/12/22 06:50:05;;;;;;;8.97;8.07;;;-0.80;74.20;;;;;;5014160;28;20456;-70
2021/12/22 06:52:33;;;;;;;8.43;6.80;;;-0.70;74.00;;;;;;5014006;28;20465;-69
2021/12/22 06:55:01;;;;;;;8.00;6.90;;;-0.80;74.10;;;;;;5013662;28;21001;-70
2021/12/22 06:57:29;;;;;;;8.27;7.00;;;-0.80;74.10;;;;;;5013722;28;20998;-70
2021/12/22 06:59:58;;;;;;;9.77;7.37;;;-0.70;73.70;;;;;;5013976;28;20456;-69
2021/12/22 07:02:26;;;;;;;7.80;7.00;;;-0.80;74.10;;;;;;5013541;28;20538;-70
2021/12/22 07:04:53;;;;;;;7.43;6.70;;;-1.00;74.10;;;;;;5013606;28;20894;-70
2021/12/22 07:07:19;;;;;;;7.77;6.50;;;-1.10;74.90;;;;;;5013833;28;20502;-69
2021/12/22 07:09:46;;;;;;;7.90;7.10;;;-1.30;75.60;;;;;;5013680;28;20511;-70
2021/12/22 07:12:14;;;;;;;8.93;7.50;;;-1.40;75.80;;;;;;5013562;28;20468;-70
2021/12/22 07:14:41;;;;;;;8.30;7.07;;;-1.50;76.60;;;;;;5013772;28;20452;-70
2021/12/22 07:17:09;;;;;;;9.13;7.40;;;-1.50;76.60;;;;;;5013689;28;20448;-70
2021/12/22 07:19:36;;;;;;;7.90;6.87;;;-1.60;77.00;;;;;;5013709;28;20860;-69
2021/12/22 07:22:04;;;;;;;8.73;7.20;;;-1.60;77.20;;;;;;5013162;28;20995;-70
2021/12/22 07:24:31;;;;;;;7.40;6.63;;;-1.40;76.80;;;;;;5013658;28;20484;-69
2021/12/22 07:26:57;;;;;;;8.90;8.00;;;-1.50;76.40;;;;;;5013158;28;20969;-70
2021/12/22 07:29:25;;;;;;;7.80;6.63;;;-1.50;76.70;;;;;;5013573;28;20487;-70
2021/12/22 07:31:52;;;;;;;8.70;7.80;;;-1.60;76.80;;;;;;5013439;28;20890;-70
2021/12/22 07:34:25;;;;;;;7.90;6.47;;;-1.70;77.50;;;;;;5013272;28;21072;-70
2021/12/22 07:36:56;;;;;;;8.03;6.90;;;-1.50;77.20;;;;;;5013471;28;20433;-69
2021/12/22 07:39:22;;;;;;;7.20;6.50;;;-1.40;76.60;;;;;;5013165;28;20842;-69
2021/12/22 07:41:49;;;;;;;7.70;6.90;;;-1.40;76.60;;;;;;5013069;28;20461;-70
2021/12/22 07:44:16;;;;;;;8.70;7.63;;;-1.50;77.00;;;;;;5013352;28;20448;-70
2021/12/22 07:46:44;;;;;;;8.50;6.60;;;-1.50;77.10;;;;;;5013419;28;20581;-70
2021/12/22 07:49:11;;;;;;;7.60;6.80;;;-1.60;77.00;;;;;;5013332;28;20511;-70
2021/12/22 07:51:38;;;;;;;8.33;7.43;;;-1.60;77.10;;;;;;5013088;28;21064;-70
2021/12/22 07:54:05;;;;;;;7.57;5.77;;;-1.30;77.40;;;;;;5013377;28;20455;-70
2021/12/22 07:56:32;;;;;;;7.47;6.47;;;-1.00;76.30;;;;;;5013107;28;20868;-70
2021/12/22 07:58:58;;;;;;;7.43;6.73;;;-0.70;75.80;;;;;;5013305;28;20867;-69
2021/12/22 08:01:25;;;;;;;7.17;6.10;;;-0.40;74.80;;;;;;5013038;28;20479;-70
2021/12/22 08:03:53;;;;;;;7.87;7.07;;;-0.20;73.70;;;;;;5013073;28;20487;-69
2021/12/22 08:06:20;;;;;;;7.73;6.93;;;-0.30;72.80;;;;;;5013205;28;20483;-70
2021/12/22 08:08:47;;;;;;;8.53;7.30;;;-0.30;72.50;;;;;;5013197;28;20479;-69
2021/12/22 08:11:13;;;;;;;6.90;5.70;;;-0.40;72.90;;;;;;5013176;28;20479;-71
2021/12/22 08:13:40;;;;;;;7.93;6.30;;;-0.30;73.30;;;;;;5013226;28;20498;-70
2021/12/22 08:16:07;;;;;;;8.60;5.97;;;-0.40;73.30;;;;;;5012920;28;21001;-70
2021/12/22 08:18:33;;;;;;;7.00;5.40;;;-0.50;73.30;;;;;;5013149;28;20459;-70
2021/12/22 08:21:01;;;;;;;8.07;6.60;;;-0.60;74.10;;;;;;5013120;28;20519;-70
2021/12/22 08:23:28;;;;;;;6.70;6.00;;;-0.60;74.20;;;;;;5015082;28;21017;-70
2021/12/22 08:25:56;;;;;;;7.30;6.60;;;-0.70;74.80;;;;;;5016699;28;20480;-69
2021/12/22 08:28:22;;;;;;;7.10;6.40;;;-0.60;74.60;;;;;;5016220;28;20804;-69
2021/12/22 08:30:49;;;;;;;9.00;8.13;;;-0.50;74.80;;;;;;5016510;28;20484;-71
2021/12/22 08:33:21;;;;;;;7.77;6.97;;;-0.30;74.40;;;;;;5016518;28;20448;-70
2021/12/22 08:38:54;;;;;;;8.77;6.33;;;0.20;73.30;;;;;;5016459;28;20408;-70
2021/12/22 08:41:23;;;;;;;7.00;6.30;;;0.20;72.20;;;;;;5016223;28;20499;-69
2021/12/22 08:43:51;;;;;;;7.13;5.73;;;0.20;72.90;;;;;;5016223;28;20448;-69
2021/12/22 08:46:19;;;;;;;7.13;6.27;;;0.50;72.30;;;;;;5016117;28;20487;-70
2021/12/22 08:48:45;;;;;;;7.90;6.57;;;0.70;71.70;;;;;;5016164;28;20502;-69
2021/12/22 08:51:12;;;;;;;6.77;6.07;;;0.90;71.10;;;;;;5016082;28;20487;-70
2021/12/22 08:53:41;;;;;;;7.50;6.37;;;1.00;70.30;;;;;;5016181;28;20452;-69
2021/12/22 08:56:07;;;;;;;6.37;5.70;;;1.10;69.50;;;;;;5016214;28;20507;-70
2021/12/22 08:58:34;;;;;;;6.93;6.23;;;1.10;69.60;;;;;;5015750;28;20884;-70
2021/12/22 09:01:02;;;;;;;8.23;7.47;;;1.40;69.20;;;;;;5015762;28;20484;-70
2021/12/22 09:03:29;;;;;;;7.17;6.47;;;1.30;69.10;;;;;;5015969;28;20452;-70
2021/12/22 09:05:56;;;;;;;7.70;6.90;;;1.30;69.60;;;;;;5015894;28;20495;-70
2021/12/22 09:08:22;;;;;;;7.97;7.20;;;1.20;69.30;;;;;;5015730;28;20448;-70
2021/12/22 09:10:50;;;;;;;8.13;7.17;;;1.10;69.90;;;;;;5015212;28;20526;-69
2021/12/22 09:13:19;;;;;;;6.77;6.07;;;1.00;70.30;;;;;;5015826;28;20452;-69
2021/12/22 09:15:46;;;;;;;7.83;7.03;;;1.00;70.20;;;;;;5015415;28;20543;-69
2021/12/22 09:18:13;;;;;;;7.30;6.13;;;0.90;70.80;;;;;;5015754;28;20498;-69
2021/12/22 09:20:40;;;;;;;7.77;6.80;;;0.70;70.40;;;;;;5015583;28;20452;-69
2021/12/22 09:23:07;;;;;;;7.90;6.93;;;0.70;71.70;;;;;;5015581;28;20447;-69
2021/12/22 09:25:34;;;;;;;8.33;7.40;;;0.00;72.30;;;;;;5015112;28;20899;-70
2021/12/22 09:28:02;;;;;;;8.37;6.73;;;-0.10;73.60;;;;;;5015320;28;20955;-69
2021/12/22 09:30:35;;;;;;;7.20;6.43;;;-0.20;74.20;;;;;;5015169;28;20502;-70
2021/12/22 09:33:03;;;;;;;8.50;6.30;;;-0.30;74.80;;;;;;5015042;28;20429;-69
2021/12/22 09:35:29;;;;;;;8.03;7.10;;;-0.10;75.40;;;;;;5015181;28;20450;-70
2021/12/22 09:37:56;;;;;;;7.50;6.70;;;0.10;74.40;;;;;;5015203;28;20456;-69
2021/12/22 09:40:23;;;;;;;6.63;6.00;;;0.10;74.10;;;;;;5015145;28;20448;-70
2021/12/22 09:42:50;;;;;;;9.30;6.77;;;0.20;74.30;;;;;;5015148;28;20448;-68
2021/12/22 09:45:19;;;;;;;8.50;7.20;;;0.10;73.60;;;;;;5015128;28;20519;-68
2021/12/22 09:47:59;;;;;;;8.30;6.10;;;-0.20;74.10;;;;;;5015094;28;20455;-69
2021/12/22 09:50:38;;;;;;;7.47;6.33;;;0.00;75.20;;;;;;5015049;28;20436;-70
2021/12/22 09:53:05;;;;;;;6.70;6.00;;;-0.20;74.30;;;;;;5014954;28;20499;-68
2021/12/22 09:55:33;;;;;;;7.47;6.40;;;-0.10;75.40;;;;;;5014836;28;20486;-68
2021/12/22 09:58:01;;;;;;;6.20;5.60;;;-0.10;75.10;;;;;;5014527;28;20894;-69
2021/12/22 10:00:30;;;;;;;7.43;6.63;;;0.10;74.80;;;;;;5014768;28;20452;-70
2021/12/22 10:02:57;;;;;;;7.43;6.70;;;0.20;73.90;;;;;;5014376;28;20522;-69
2021/12/22 10:05:24;;;;;;;7.30;5.60;;;0.20;72.60;;;;;;5014333;28;20990;-69
2021/12/22 10:08:05;;;;;;;6.40;5.47;;;0.00;73.30;;;;;;5014537;28;20506;-70
2021/12/22 10:10:32;;;;;;;6.77;5.97;;;0.20;73.70;;;;;;5014603;28;20436;-70
2021/12/22 10:13:06;;;;;;;6.80;6.03;;;0.40;72.50;;;;;;5014263;28;20820;-69
2021/12/22 10:15:35;;;;;;;6.30;4.73;;;0.60;72.50;;;;;;5015772;28;20516;-69
2021/12/22 10:18:09;;;;;;;7.20;6.40;;;0.90;70.90;;;;;;5014386;28;20502;-70
2021/12/22 10:20:36;;;;;;;6.90;6.20;;;0.80;70.40;;;;;;5014560;28;20433;-70
2021/12/22 10:23:03;;;;;;;6.73;5.80;;;1.00;71.60;;;;;;5014440;28;20444;-69
2021/12/22 10:25:31;;;;;;;6.10;5.50;;;1.00;70.40;;;;;;5014451;28;20902;-69
2021/12/22 10:28:00;;;;;;;6.30;5.70;;;0.60;70.10;;;;;;5014295;28;20508;-69
2021/12/22 10:30:30;;;;;;;7.23;6.40;;;0.20;72.50;;;;;;5014246;28;20444;-70
2021/12/22 10:33:14;;;;;;;9.20;7.07;;;0.20;73.30;;;;;;5014145;28;20444;-69
2021/12/22 10:35:44;;;;;;;6.50;5.77;;;0.20;73.50;;;;;;5015089;28;20432;-68
2021/12/22 10:38:13;;;;;;;6.80;6.10;;;0.20;72.80;;;;;;5014136;28;20448;-69
2021/12/22 10:40:42;;;;;;;6.53;5.73;;;0.50;74.20;;;;;;5013855;28;20506;-68
2021/12/22 10:43:14;;;;;;;7.50;5.90;;;0.80;73.20;;;;;;5014296;28;20467;-69
2021/12/22 10:45:41;;;;;;;6.23;5.63;;;0.90;72.10;;;;;;5013472;28;20468;-68
2021/12/22 10:50:57;;;;;;;6.60;5.90;;;1.10;73.00;;;;;;5014323;28;20447;-69
2021/12/22 10:53:24;;;;;;;6.00;5.30;;;1.30;70.70;;;;;;5013967;28;20487;-69
2021/12/22 10:55:53;;;;;;;8.70;6.63;;;1.60;69.50;;;;;;5013837;28;20851;-69
2021/12/22 10:58:26;;;;;;;7.03;6.33;;;1.90;69.60;;;;;;5013833;28;20440;-69
2021/12/22 11:01:08;;;;;;;5.43;4.80;;;2.70;68.20;;;;;;5013544;28;20519;-70
2021/12/22 11:03:40;;;;;;;7.20;6.43;;;3.00;67.10;;;;;;5013975;28;20470;-69
2021/12/22 11:06:16;;;;;;;6.80;5.53;;;3.20;65.70;;;;;;5013603;28;20970;-69
2021/12/22 11:08:53;;;;;;;6.37;5.63;;;2.90;65.90;;;;;;5013954;28;20519;-69
2021/12/22 11:11:20;;;;;;;6.93;6.30;;;2.50;67.60;;;;;;5013866;28;20471;-69
2021/12/22 11:14:02;;;;;;;7.00;6.33;;;2.10;67.60;;;;;;5013953;28;20444;-70
2021/12/22 11:16:29;;;;;;;6.53;5.83;;;2.00;68.70;;;;;;5031029;28;20438;-70
2021/12/22 11:19:07;;;;;;;8.20;6.80;;;1.40;70.60;;;;;;5027875;28;20456;-71
2021/12/22 11:21:36;;;;;;;7.07;6.07;;;1.60;70.50;;;;;;5014151;28;20471;-70
2021/12/22 11:24:03;;;;;;;6.50;5.67;;;1.50;70.10;;;;;;5013495;28;20924;-69
2021/12/22 11:26:30;;;;;;;7.37;5.23;;;1.20;70.40;;;;;;5013774;28;20484;-69
2021/12/22 11:28:57;;;;;;;8.00;7.20;;;1.00;71.00;;;;;;5014618;28;20460;-69
2021/12/22 11:31:24;;;;;;;7.10;6.17;;;1.00;71.80;;;;;;5013792;28;20901;-70
2021/12/22 11:33:51;;;;;;;6.77;6.07;;;1.10;71.60;;;;;;5013804;28;20444;-69
2021/12/22 11:36:18;;;;;;;7.10;6.17;;;1.10;70.70;;;;;;5013763;28;20517;-69
2021/12/22 11:38:46;;;;;;;7.10;6.33;;;1.10;71.20;;;;;;5013546;28;20502;-68
2021/12/22 11:41:16;;;;;;;6.40;5.77;;;1.20;71.70;;;;;;5013434;28;20468;-69
2021/12/22 11:43:44;;;;;;;6.70;5.30;;;1.40;71.40;;;;;;5014302;28;20867;-68
2021/12/22 11:46:12;;;;;;;7.33;6.53;;;1.50;70.90;;;;;;5013339;28;20539;-68
2021/12/22 11:48:40;;;;;;;7.60;5.67;;;1.40;71.00;;;;;;5013114;28;20829;-68
2021/12/22 11:51:22;;;;;;;7.50;6.77;;;1.30;70.50;;;;;;5013383;28;20523;-69
2021/12/22 11:53:55;;;;;;;7.23;6.47;;;1.60;70.60;;;;;;5013423;28;20471;-70
2021/12/22 11:56:37;;;;;;;7.10;6.07;;;1.80;69.50;;;;;;5014074;28;20928;-69
2021/12/22 11:59:04;;;;;;;7.03;5.30;;;2.10;68.90;;;;;;5017295;28;20447;-70
2021/12/22 12:01:31;;;;;;;6.33;5.70;;;2.40;67.80;;;;;;5017195;28;20487;-71
2021/12/22 12:04:13;;;;;;;6.00;4.83;;;2.90;65.40;;;;;;5017433;28;20447;-70
2021/12/22 12:06:50;;;;;;;6.20;5.30;;;4.20;61.50;;;;;;5017304;28;20472;-69
2021/12/22 12:09:23;;;;;;;6.50;5.90;;;5.00;61.00;;;;;;5017200;28;20474;-69
2021/12/22 12:11:53;;;;;;;6.10;5.37;;;6.60;57.00;;;;;;5017181;28;20478;-69
2021/12/22 12:15:00;;;;;;;6.43;5.83;;;7.00;54.70;;;;;;5017232;28;20462;-70
2021/12/22 12:23:27;;;;;;;6.27;5.20;;;10.60;49.60;;;;;;4975565;28;20433;-71
2021/12/22 12:25:56;;;;;;;5.73;5.13;;;11.80;44.20;;;;;;4976333;28;20470;-70
2021/12/22 12:28:24;;;;;;;5.93;5.33;;;13.00;42.80;;;;;;4997779;28;20456;-71
2021/12/22 12:30:53;;;;;;;6.10;5.50;;;14.50;40.90;;;;;;5017288;28;20467;-71
2021/12/22 12:33:26;;;;;;;6.03;5.43;;;15.20;38.60;;;;;;5016410;28;20955;-70
2021/12/22 12:36:11;;;;;;;6.03;5.43;;;14.50;40.40;;;;;;5016567;28;20470;-70
2021/12/22 12:38:47;;;;;;;5.10;4.50;;;14.00;39.80;;;;;;5016737;28;20431;-70
2021/12/22 12:41:25;;;;;;;6.20;5.60;;;14.20;40.20;;;;;;5016434;28;20471;-72
2021/12/22 12:44:11;;;;;;;6.93;6.33;;;15.10;38.50;;;;;;5016533;28;20443;-71
2021/12/22 12:46:48;;;;;;;6.77;5.67;;;15.60;37.70;;;;;;5016040;28;21010;-70
2021/12/22 12:49:37;;;;;;;5.43;4.80;;;15.40;38.30;;;;;;5016502;28;20431;-71
2021/12/22 12:52:10;;;;;;;5.80;5.23;;;16.30;36.30;;;;;;5016311;28;20472;-70
2021/12/22 12:54:40;;;;;;;5.93;5.37;;;17.00;36.90;;;;;;5016241;28;20441;-71
2021/12/22 12:57:27;;;;;;;6.20;5.60;;;17.10;34.80;;;;;;5016166;28;20432;-70
2021/12/22 13:00:02;;;;;;;5.87;5.27;;;17.30;36.30;;;;;;5016135;28;20459;-70
2021/12/22 13:02:30;;;;;;;5.80;5.20;;;18.00;34.40;;;;;;5015707;28;20493;-71
2021/12/22 13:04:59;;;;;;;6.03;5.50;;;15.90;35.80;;;;;;5016065;28;20448;-70
2021/12/22 13:07:26;;;;;;;6.97;5.43;;;15.90;36.30;;;;;;5015918;28;20476;-70
2021/12/22 13:09:58;;;;;;;6.50;5.90;;;15.30;37.60;;;;;;5015335;28;20444;-71
2021/12/22 13:12:47;;;;;;;5.90;5.30;;;16.20;37.20;;;;;;5015571;28;20523;-70
2021/12/22 13:18:03;;;;;;;5.57;5.00;;;16.00;35.80;;;;;;5015692;28;20410;-71
2021/12/22 13:20:32;;;;;;;6.03;5.43;;;15.60;37.70;;;;;;5015696;28;20452;-71
2021/12/22 13:23:02;;;;;;;6.03;5.43;;;16.20;36.00;;;;;;5015695;28;20455;-70
2021/12/22 13:25:31;;;;;;;5.93;5.33;;;16.30;36.60;;;;;;5016011;28;20445;-71
2021/12/22 13:28:02;;;;;;;6.17;5.40;;;16.90;35.90;;;;;;5015641;28;20480;-70
2021/12/22 13:30:30;;;;;;;6.63;6.03;;;17.10;35.30;;;;;;5015247;28;20911;-71
2021/12/22 13:32:59;;;;;;;5.50;4.87;;;17.00;34.70;;;;;;5015476;28;20499;-70
2021/12/22 13:35:35;;;;;;;5.50;5.00;;;16.10;35.60;;;;;;5015595;28;20452;-70
2021/12/22 13:38:04;;;;;;;6.47;5.80;;;15.10;37.30;;;;;;5015383;28;20436;-70
2021/12/22 13:40:40;;;;;;;6.93;6.23;;;14.20;39.10;;;;;;5015247;28;20498;-71
2021/12/22 13:43:21;;;;;;;6.03;5.43;;;14.20;39.00;;;;;;5015106;28;20841;-70
2021/12/22 13:45:48;;;;;;;6.20;5.03;;;13.80;39.70;;;;;;5015308;28;20483;-70
2021/12/22 13:48:17;;;;;;;5.93;5.33;;;13.40;40.50;;;;;;5014795;28;20999;-70
2021/12/22 13:50:44;;;;;;;5.80;5.20;;;13.10;41.00;;;;;;5014789;28;20476;-70
2021/12/22 13:53:13;;;;;;;6.93;6.23;;;13.10;41.30;;;;;;5015153;28;20508;-70
2021/12/22 13:55:39;;;;;;;6.63;5.93;;;13.60;41.00;;;;;;5015078;28;20444;-70
2021/12/22 13:58:32;;;;;;;7.23;5.97;;;13.00;40.70;;;;;;5015027;28;20448;-70
2021/12/22 14:01:16;;;;;;;6.67;5.70;;;12.70;41.90;;;;;;5014789;28;20542;-71
2021/12/22 14:03:44;;;;;;;7.50;5.97;;;12.90;41.80;;;;;;5015117;28;20487;-71
2021/12/22 14:06:14;;;;;;;6.43;5.83;;;13.40;41.80;;;;;;5014929;28;20451;-71
2021/12/22 14:08:42;;;;;;;7.57;6.90;;;13.50;41.70;;;;;;5015186;28;20456;-70
2021/12/22 14:11:31;;;;;;;7.30;6.60;;;13.00;42.30;;;;;;5015171;28;20468;-71
2021/12/22 14:14:19;;;;;;;7.00;6.40;;;12.50;43.00;;;;;;5015360;28;20436;-70
2021/12/22 14:16:47;;;;;;;7.47;6.63;;;11.70;44.50;;;;;;5014818;28;20432;-69
2021/12/22 14:19:17;;;;;;;7.03;6.30;;;11.20;45.60;;;;;;5014635;28;20871;-70
2021/12/22 14:21:44;;;;;;;6.53;5.83;;;10.00;47.50;;;;;;5014016;28;20471;-69
2021/12/22 14:24:14;;;;;;;8.90;8.00;;;9.50;48.90;;;;;;5014837;28;20452;-71
2021/12/22 14:26:47;;;;;;;6.63;5.93;;;9.00;49.90;;;;;;5014393;28;20476;-69
2021/12/22 14:29:16;;;;;;;7.30;6.60;;;8.30;51.10;;;;;;5014952;28;20455;-70
2021/12/22 14:32:01;;;;;;;7.40;6.70;;;7.80;52.30;;;;;;5014183;28;20891;-69
2021/12/22 14:34:28;;;;;;;8.70;7.33;;;7.10;53.70;;;;;;5015402;28;20448;-70
2021/12/22 14:36:56;;;;;;;7.90;6.70;;;6.30;55.90;;;;;;5014386;28;20454;-69
2021/12/22 14:39:39;;;;;;;8.77;7.87;;;5.80;57.50;;;;;;5014582;28;20455;-69
2021/12/22 14:42:24;;;;;;;8.83;7.73;;;5.20;59.40;;;;;;5014486;28;20472;-70
2021/12/22 14:44:53;;;;;;;9.43;7.83;;;4.60;61.40;;;;;;5014114;28;20433;-69
2021/12/22 14:47:21;;;;;;;8.27;7.47;;;4.40;62.10;;;;;;5014197;28;20848;-70
2021/12/22 14:49:50;;;;;;;8.47;7.53;;;4.30;62.30;;;;;;5014244;28;20444;-69
2021/12/22 14:52:19;;;;;;;7.73;6.90;;;4.30;62.50;;;;;;5014228;28;20547;-69
2021/12/22 14:54:48;;;;;;;8.33;6.27;;;4.30;62.70;;;;;;5014259;28;20547;-69
2021/12/22 14:57:23;;;;;;;8.73;7.90;;;3.70;64.30;;;;;;5014388;28;20432;-70
2021/12/22 14:59:50;;;;;;;8.63;7.47;;;3.20;66.10;;;;;;5015387;28;20428;-70
2021/12/22 15:02:18;;;;;;;7.93;6.67;;;3.20;66.40;;;;;;5013838;28;21030;-70
2021/12/22 15:04:44;;;;;;;9.03;8.13;;;3.00;67.10;;;;;;5014421;28;20814;-69
2021/12/22 15:07:11;;;;;;;8.83;7.37;;;3.00;67.30;;;;;;5014167;28;20476;-69
2021/12/22 15:09:38;;;;;;;8.13;6.40;;;2.90;67.60;;;;;;5014315;28;20454;-68
2021/12/22 15:12:06;;;;;;;7.90;6.93;;;2.60;68.20;;;;;;5014191;28;20483;-69
2021/12/22 15:14:32;;;;;;;8.70;7.53;;;2.40;69.20;;;;;;5014424;28;20514;-70
2021/12/22 15:16:59;;;;;;;8.10;7.30;;;2.20;69.80;;;;;;5013671;28;20515;-69
2021/12/22 15:19:27;;;;;;;7.90;7.10;;;2.30;69.60;;;;;;5014046;28;20463;-69
2021/12/22 15:21:54;;;;;;;9.27;7.60;;;2.30;69.50;;;;;;5013910;28;20869;-70
2021/12/22 15:24:21;;;;;;;8.20;7.40;;;2.10;70.30;;;;;;5014569;28;20451;-70
2021/12/22 15:26:47;;;;;;;8.43;7.30;;;2.20;70.20;;;;;;5013371;28;21018;-70
2021/12/22 15:29:14;;;;;;;7.77;6.97;;;2.20;70.30;;;;;;5013663;28;20452;-69
2021/12/22 15:31:41;;;;;;;8.80;8.00;;;2.50;69.60;;;;;;5013043;28;20983;-69
2021/12/22 15:34:08;;;;;;;8.77;7.87;;;2.70;69.00;;;;;;5013689;28;20456;-69
2021/12/22 15:36:36;;;;;;;8.00;7.20;;;2.80;68.70;;;;;;5013320;28;20451;-69
2021/12/22 15:39:03;;;;;;;8.90;8.00;;;2.60;68.80;;;;;;5013555;28;20484;-69
2021/12/22 15:41:30;;;;;;;8.37;7.57;;;2.50;69.40;;;;;;5013514;28;20468;-70
2021/12/22 15:43:57;;;;;;;7.70;6.90;;;2.50;69.40;;;;;;5013674;28;20452;-70
2021/12/22 15:46:23;;;;;;;9.83;8.00;;;1.90;70.90;;;;;;5013940;28;20543;-69
2021/12/22 15:48:50;;;;;;;8.67;7.93;;;1.90;71.60;;;;;;5013975;28;20484;-69
2021/12/22 15:51:17;;;;;;;9.27;8.27;;;1.80;71.70;;;;;;5014215;28;20468;-69
2021/12/22 15:53:45;;;;;;;9.47;8.57;;;1.70;72.20;;;;;;5014289;28;20451;-69
2021/12/22 15:56:12;;;;;;;12.00;9.73;;;1.60;72.80;;;;;;5014992;28;20958;-69
2021/12/22 15:58:39;;;;;;;9.40;7.90;;;1.90;72.30;;;;;;5015107;28;20440;-70
2021/12/22 16:01:05;;;;;;;10.37;8.60;;;2.00;71.50;;;;;;5015236;28;20479;-70
2021/12/22 16:03:32;;;;;;;8.13;7.33;;;2.30;70.90;;;;;;5014167;28;20441;-69
2021/12/22 16:05:59;;;;;;;8.60;7.70;;;2.50;70.30;;;;;;5014027;28;20451;-69
2021/12/22 16:08:26;;;;;;;8.80;7.93;;;2.60;69.90;;;;;;5013423;28;20487;-69
2021/12/22 16:10:54;;;;;;;8.73;7.83;;;2.70;69.50;;;;;;5013447;28;20527;-69
2021/12/22 16:13:21;;;;;;;8.03;7.30;;;2.80;69.20;;;;;;5013404;28;20444;-69
2021/12/22 16:15:48;;;;;;;8.83;7.93;;;2.80;68.90;;;;;;5037753;22;20488;-69
2021/12/22 16:18:15;;;;;;;8.57;7.67;;;2.70;68.90;;;;;;5013039;28;20527;-68
2021/12/22 16:20:42;;;;;;;8.70;7.77;;;2.80;68.70;;;;;;5012907;28;20873;-68
2021/12/22 16:23:09;;;;;;;9.03;8.17;;;2.70;68.40;;;;;;5013003;28;20444;-70
2021/12/22 16:25:36;;;;;;;9.20;8.30;;;2.70;68.50;;;;;;5013024;28;20522;-71
2021/12/22 16:28:05;;;;;;;9.20;8.30;;;2.70;68.50;;;;;;5012855;28;20858;-68
2021/12/22 16:30:32;;;;;;;8.23;7.13;;;2.70;68.60;;;;;;5012860;28;20795;-68
2021/12/22 16:32:58;;;;;;;8.90;8.00;;;2.60;68.70;;;;;;5012591;28;20947;-68
2021/12/22 16:35:25;;;;;;;8.17;7.37;;;2.30;69.20;;;;;;5012886;28;20472;-69
2021/12/22 16:37:52;;;;;;;8.47;7.67;;;2.20;69.70;;;;;;5012871;28;20448;-70
2021/12/22 16:40:21;;;;;;;9.97;7.97;;;2.30;69.60;;;;;;5012849;28;20452;-68
2021/12/22 16:42:48;;;;;;;9.10;7.77;;;2.20;69.50;;;;;;5012651;28;20484;-69
2021/12/22 16:45:16;;;;;;;7.70;6.97;;;2.10;69.50;;;;;;5016119;28;20452;-68
2021/12/22 16:47:49;;;;;;;10.97;8.27;;;2.10;70.00;;;;;;5015931;28;20571;-68
2021/12/22 16:50:17;;;;;;;8.00;7.20;;;2.20;69.80;;;;;;5016261;28;20503;-68
2021/12/22 16:52:44;;;;;;;7.90;7.10;;;2.40;69.40;;;;;;5016616;28;20452;-68
2021/12/22 16:55:11;;;;;;;10.67;8.57;;;2.50;69.10;;;;;;5016157;28;20583;-69
2021/12/22 16:57:37;;;;;;;9.00;7.60;;;2.50;69.00;;;;;;5016178;28;20448;-69
2021/12/22 17:00:09;;;;;;;8.47;7.57;;;2.60;69.00;;;;;;5016119;28;20448;-69
2021/12/22 17:02:38;;;;;;;8.33;7.00;;;2.60;68.70;;;;;;5015628;28;20928;-70
2021/12/22 17:05:06;;;;;;;10.37;9.10;;;2.60;68.80;;;;;;5015857;28;20456;-69
2021/12/22 17:07:32;;;;;;;9.33;8.27;;;2.70;68.70;;;;;;5015868;28;20579;-69
2021/12/22 17:09:59;;;;;;;11.27;10.10;;;2.70;68.80;;;;;;5015889;28;20448;-69
2021/12/22 17:12:26;;;;;;;9.87;8.97;;;2.60;68.90;;;;;;5015540;28;20448;-69
2021/12/22 17:14:52;;;;;;;10.43;8.20;;;2.60;68.80;;;;;;5015396;28;20863;-69
2021/12/22 17:17:21;;;;;;;10.00;9.00;;;2.60;68.80;;;;;;5015171;28;20898;-68